Terminal Aerodrome Forecast
Issued by NWS Tampa Bay Area, FL

Home | Current Version | Previous Version | Text Only | Print | Product List | Glossary Off
Versions: 1 2 3 4 5 6 7 8 9 10 11 12 13 14 15 16 17 18 19 20 21 22 23 24 25 26 27

000
FTUS42 KTBW 200245 AAA
TAFTPA
TAF AMD
KTPA 200245Z 2003/2106 35005KT P6SM FEW250
     FM200600 05004KT P6SM SCT250
     FM201400 08006KT P6SM BKN250
     FM202100 24005KT P6SM SCT030 BKN200
     FM210000 35005KT P6SM SCT020 OVC150=

USA.gov is the U.S. government's official web portal to all federal, state and local government web resources and services.